createdAt,value
2018-06-30T04:00:53.387Z,86.92
2018-06-30T04:01:52.990Z,86.34
2018-06-30T04:03:45.703Z,86.54
2018-06-30T04:04:45.582Z,86.05
2018-06-30T04:06:38.268Z,86.05
2018-06-30T04:07:38.169Z,86.15
2018-06-30T04:09:30.871Z,85.19
2018-06-30T04:10:30.751Z,85.33
2018-06-30T04:12:23.439Z,85.42
2018-06-30T04:13:23.336Z,85.33
2018-06-30T04:15:16.040Z,85.24
2018-06-30T04:16:15.922Z,84.85
2018-06-30T04:18:08.625Z,85.33
2018-06-30T04:19:08.496Z,85.42
2018-06-30T04:21:01.181Z,84.85
2018-06-30T04:22:01.131Z,84.85
2018-06-30T04:23:53.783Z,84.47
2018-06-30T04:24:53.660Z,85.14
2018-06-30T04:26:46.344Z,84.95
2018-06-30T04:27:46.245Z,84.61
2018-06-30T04:29:38.946Z,84.71
2018-06-30T04:30:38.824Z,84.91
2018-06-30T04:32:31.505Z,84.95
2018-06-30T04:33:31.402Z,84.14
2018-06-30T04:35:24.101Z,84.91
2018-06-30T04:36:23.985Z,84.81
2018-06-30T04:38:16.662Z,84.23
2018-06-30T04:39:16.562Z,84.47
2018-06-30T04:41:09.259Z,84.56
2018-06-30T04:42:09.142Z,84.18
2018-06-30T04:44:01.824Z,83.98
2018-06-30T04:45:01.717Z,83.89
2018-06-30T04:46:54.566Z,83.89
2018-06-30T04:47:54.326Z,83.60
2018-06-30T04:49:47.011Z,84.08
2018-06-30T04:50:46.906Z,84.08
2018-06-30T04:52:39.603Z,83.51
2018-06-30T04:53:39.479Z,83.80
2018-06-30T04:55:32.176Z,83.41
2018-06-30T04:56:32.059Z,83.27
2018-06-30T04:58:24.740Z,83.22
2018-06-30T04:59:24.642Z,82.93
2018-06-30T05:01:17.338Z,83.51
2018-06-30T05:02:17.214Z,83.22
2018-06-30T05:04:09.898Z,83.12
2018-06-30T05:05:09.793Z,83.03
2018-06-30T05:07:02.499Z,82.93
2018-06-30T05:08:02.373Z,82.74
2018-06-30T05:09:55.054Z,82.45
2018-06-30T05:10:54.956Z,82.64
2018-06-30T05:12:47.682Z,82.45
2018-06-30T05:13:47.535Z,82.16
2018-06-30T05:15:40.213Z,81.68
2018-06-30T05:16:40.116Z,80.91
2018-06-30T05:18:32.809Z,79.96
2018-06-30T05:19:32.692Z,79.86
2018-06-30T05:21:25.381Z,79.76
2018-06-30T05:22:25.277Z,79.09
2018-06-30T05:24:17.980Z,78.80
2018-06-30T05:25:17.856Z,78.42
2018-06-30T05:27:10.546Z,78.32
2018-06-30T05:28:10.438Z,78.13
2018-06-30T05:30:03.137Z,77.98
2018-06-30T05:31:03.017Z,78.61
2018-06-30T05:32:55.718Z,78.36
2018-06-30T05:33:55.593Z,77.78
2018-06-30T05:35:48.286Z,76.88
2018-06-30T05:36:48.178Z,77.21
2018-06-30T05:38:40.882Z,76.73
2018-06-30T05:39:40.762Z,76.44
2018-06-30T05:41:33.446Z,77.11
2018-06-30T05:42:33.347Z,76.82
2018-06-30T05:44:26.049Z,76.73
2018-06-30T05:45:25.927Z,77.11
2018-06-30T05:47:18.621Z,76.06
2018-06-30T05:48:18.516Z,76.54
2018-06-30T05:50:11.219Z,74.81
2018-06-30T05:51:11.097Z,74.71
2018-06-30T05:53:03.788Z,75.52
2018-06-30T05:54:03.680Z,74.37
2018-06-30T05:55:56.532Z,73.41
2018-06-30T05:56:56.259Z,73.50
2018-06-30T05:58:48.944Z,72.83
2018-06-30T05:59:48.838Z,72.73
2018-06-30T06:01:41.546Z,72.06
2018-06-30T06:02:41.426Z,73.21
2018-06-30T06:04:34.137Z,72.92
2018-06-30T06:05:34.008Z,73.02
2018-06-30T06:07:26.689Z,72.16
2018-06-30T06:08:26.588Z,72.44
2018-06-30T06:10:19.298Z,71.04
2018-06-30T06:11:19.166Z,70.65
2018-06-30T06:13:11.850Z,70.56
2018-06-30T06:14:11.757Z,69.44
2018-06-30T06:16:04.457Z,67.32
2018-06-30T06:17:04.340Z,65.56
2018-06-30T06:18:57.021Z,55.70
2018-06-30T06:19:56.926Z,49.54
2018-06-30T06:21:49.634Z,42.16
2018-06-30T06:22:49.520Z,39.67
2018-06-30T06:24:42.223Z,36.04
2018-06-30T06:25:42.127Z,34.19
2018-06-30T06:27:34.887Z,33.53
2018-06-30T06:28:34.735Z,32.19
2018-06-30T06:30:27.440Z,31.39
2018-06-30T06:31:27.352Z,31.32
2018-06-30T06:33:20.080Z,29.97
2018-06-30T06:34:19.976Z,29.80
2018-06-30T06:36:12.683Z,29.03
2018-06-30T06:37:12.598Z,28.89
2018-06-30T06:39:05.325Z,28.93
2018-06-30T06:40:05.225Z,27.87
2018-06-30T06:41:57.961Z,26.80
2018-06-30T06:42:57.855Z,27.57
2018-06-30T06:44:50.565Z,26.59
2018-06-30T06:45:50.484Z,25.72
2018-06-30T06:47:43.221Z,26.72
2018-06-30T06:48:43.123Z,25.35
2018-06-30T06:50:35.839Z,24.19
2018-06-30T06:51:35.753Z,23.82
2018-06-30T06:53:28.626Z,23.42
2018-06-30T06:54:28.386Z,23.03
2018-06-30T06:56:21.111Z,24.02
2018-06-30T06:57:21.025Z,22.85
2018-06-30T06:59:13.759Z,22.15
2018-06-30T07:00:13.661Z,23.14
2018-06-30T07:02:06.378Z,22.66
2018-06-30T07:03:06.297Z,22.47
2018-06-30T07:04:59.048Z,22.36
2018-06-30T07:05:58.944Z,21.78
2018-06-30T07:07:51.668Z,22.08
2018-06-30T07:08:51.584Z,21.77
2018-06-30T07:10:44.327Z,21.76
2018-06-30T07:11:44.279Z,21.97
2018-06-30T07:13:36.979Z,22.45
2018-06-30T07:14:36.877Z,22.09
2018-06-30T07:16:29.598Z,21.22
2018-06-30T07:17:29.527Z,20.34
2018-06-30T07:19:22.272Z,19.85
2018-06-30T07:20:22.176Z,20.44
2018-06-30T07:22:14.891Z,20.24
2018-06-30T07:23:14.823Z,20.62
2018-06-30T07:25:07.561Z,21.14
2018-06-30T07:26:07.455Z,20.15
2018-06-30T07:28:00.179Z,20.55
2018-06-30T07:29:00.103Z,20.06
2018-06-30T07:30:52.837Z,20.44
2018-06-30T07:31:52.743Z,19.74
2018-06-30T07:33:45.464Z,20.94
2018-06-30T07:34:45.388Z,19.95
2018-06-30T07:36:38.125Z,19.85
2018-06-30T07:37:38.076Z,19.74
2018-06-30T07:39:30.773Z,20.65
2018-06-30T07:40:30.679Z,19.65
2018-06-30T07:42:23.407Z,20.73
2018-06-30T07:43:23.327Z,19.85
2018-06-30T07:45:16.093Z,19.67
2018-06-30T07:46:15.973Z,19.78
2018-06-30T07:48:08.700Z,19.74
2018-06-30T07:49:08.620Z,20.23
2018-06-30T07:51:01.365Z,19.85
2018-06-30T07:52:01.264Z,19.74
2018-06-30T07:53:54.000Z,19.17
2018-06-30T07:54:53.914Z,19.77
2018-06-30T07:56:46.658Z,19.48
2018-06-30T07:57:46.567Z,18.99
2018-06-30T07:59:39.316Z,18.99
2018-06-30T08:00:39.213Z,19.09
2018-06-30T08:02:31.941Z,18.69
2018-06-30T08:03:31.864Z,18.80
2018-06-30T08:05:24.613Z,18.02
2018-06-30T08:06:24.507Z,17.72
2018-06-30T08:08:17.238Z,17.72
2018-06-30T08:09:17.154Z,18.30
2018-06-30T08:11:10.035Z,18.69
2018-06-30T08:12:09.802Z,18.29
2018-06-30T08:14:02.529Z,18.29
2018-06-30T08:15:02.445Z,18.88
2018-06-30T08:16:55.326Z,19.06
2018-06-30T08:17:55.095Z,18.97
2018-06-30T08:19:47.829Z,18.79
2018-06-30T08:20:47.738Z,19.07
2018-06-30T08:22:40.490Z,18.87
2018-06-30T08:23:40.387Z,18.27
2018-06-30T08:25:33.121Z,18.75
2018-06-30T08:26:33.035Z,18.65
2018-06-30T08:28:25.777Z,18.55
2018-06-30T08:29:25.688Z,18.84
2018-06-30T08:31:18.437Z,17.85
2018-06-30T08:32:18.327Z,18.13
2018-06-30T08:34:11.063Z,18.32
2018-06-30T08:35:10.982Z,18.52
2018-06-30T08:37:03.725Z,19.02
2018-06-30T08:38:03.637Z,18.23
2018-06-30T08:39:56.350Z,18.52
2018-06-30T08:40:56.279Z,18.80
2018-06-30T08:42:49.018Z,19.58
2018-06-30T08:43:48.917Z,19.78
2018-06-30T08:45:41.649Z,20.15
2018-06-30T08:46:41.567Z,19.85
2018-06-30T08:48:34.305Z,20.51
2018-06-30T08:49:34.211Z,21.39
2018-06-30T08:51:26.931Z,21.19
2018-06-30T08:52:26.850Z,22.16
2018-06-30T08:54:19.594Z,22.52
2018-06-30T08:55:19.507Z,24.38
2018-06-30T08:57:12.346Z,24.54
2018-06-30T08:58:12.125Z,25.22
2018-06-30T09:00:04.860Z,26.76
2018-06-30T09:01:04.751Z,27.13
2018-06-30T09:02:57.464Z,27.68
2018-06-30T09:03:57.375Z,28.54
2018-06-30T09:05:50.109Z,29.89
2018-06-30T09:06:50.004Z,30.46
2018-06-30T09:08:42.728Z,30.17
2018-06-30T09:09:42.614Z,31.22
2018-06-30T09:11:35.325Z,31.90
2018-06-30T09:12:35.227Z,32.49
2018-06-30T09:14:27.948Z,32.68
2018-06-30T09:15:27.841Z,32.78
2018-06-30T09:17:20.598Z,32.78
2018-06-30T09:18:20.446Z,32.97
2018-06-30T09:20:13.206Z,33.07
2018-06-30T09:21:13.062Z,31.60
2018-06-30T09:23:05.759Z,32.18
2018-06-30T09:24:05.677Z,32.47
2018-06-30T09:25:58.390Z,31.10
2018-06-30T09:26:58.269Z,31.27
2018-06-30T09:28:50.964Z,32.54
2018-06-30T09:29:50.929Z,32.44
2018-06-30T09:31:43.587Z,33.70
2018-06-30T09:32:43.482Z,34.77
2018-06-30T09:34:36.202Z,33.81
2018-06-30T09:35:36.082Z,32.75
2018-06-30T09:37:28.781Z,31.08
2018-06-30T09:38:28.682Z,31.76
2018-06-30T09:40:21.399Z,31.19
2018-06-30T09:41:21.288Z,30.59
2018-06-30T09:43:13.981Z,31.38
2018-06-30T09:44:13.893Z,31.77
2018-06-30T09:46:06.748Z,30.41
2018-06-30T09:47:06.493Z,30.22
2018-06-30T09:48:59.188Z,29.25
2018-06-30T09:49:59.093Z,28.86
2018-06-30T09:51:51.807Z,29.43
2018-06-30T09:52:51.694Z,30.32
2018-06-30T09:54:44.390Z,27.10
2018-06-30T09:55:44.296Z,26.72
2018-06-30T09:57:37.013Z,26.81
2018-06-30T09:58:36.897Z,27.19
2018-06-30T10:00:29.635Z,26.81
2018-06-30T10:01:29.501Z,25.84
2018-06-30T10:03:22.215Z,25.46
2018-06-30T10:04:22.097Z,26.23
2018-06-30T10:06:14.795Z,26.53
2018-06-30T10:07:14.703Z,25.67
2018-06-30T10:09:07.439Z,23.42
2018-06-30T10:10:07.308Z,24.00
2018-06-30T10:12:00.174Z,24.28
2018-06-30T10:12:59.899Z,24.08
2018-06-30T10:14:52.604Z,25.45
2018-06-30T10:15:52.512Z,26.71
2018-06-30T10:17:45.233Z,26.62
2018-06-30T10:18:45.118Z,26.82
2018-06-30T10:20:37.813Z,26.62
2018-06-30T10:21:37.720Z,26.03
2018-06-30T10:23:30.435Z,27.58
2018-06-30T10:24:30.322Z,26.61
2018-06-30T10:26:23.022Z,27.19
2018-06-30T10:27:22.928Z,26.60
2018-06-30T10:29:15.645Z,27.58
2018-06-30T10:30:15.531Z,27.29
2018-06-30T10:32:08.226Z,26.71
2018-06-30T10:33:08.130Z,25.74
2018-06-30T10:35:00.847Z,24.57
2018-06-30T10:36:00.735Z,24.96
2018-06-30T10:37:54.075Z,25.63
2018-06-30T10:38:53.326Z,26.31
2018-06-30T10:40:46.039Z,26.60
2018-06-30T10:41:45.927Z,26.70
2018-06-30T10:43:38.785Z,27.47
2018-06-30T10:44:38.524Z,27.67
2018-06-30T10:46:31.229Z,28.44
2018-06-30T10:47:31.120Z,28.74
2018-06-30T10:49:23.830Z,27.97
2018-06-30T10:50:23.722Z,27.08
2018-06-30T10:52:16.415Z,28.44
2018-06-30T10:53:16.322Z,29.12
2018-06-30T10:55:09.031Z,27.48
2018-06-30T10:56:08.918Z,27.68
2018-06-30T10:58:01.611Z,26.90
2018-06-30T10:59:01.511Z,27.58
2018-06-30T11:00:54.231Z,26.81
2018-06-30T11:01:54.116Z,27.78
2018-06-30T11:03:46.812Z,27.68
2018-06-30T11:04:46.721Z,27.87
2018-06-30T11:06:39.441Z,27.08
2018-06-30T11:07:39.326Z,27.19
2018-06-30T11:09:32.044Z,27.58
2018-06-30T11:10:31.924Z,26.98
2018-06-30T11:12:24.651Z,27.67
2018-06-30T11:13:24.536Z,26.79
2018-06-30T11:15:17.249Z,27.96
2018-06-30T11:16:17.136Z,27.68
2018-06-30T11:18:09.829Z,26.61
2018-06-30T11:19:09.738Z,27.10
2018-06-30T11:21:02.451Z,25.54
2018-06-30T11:22:02.332Z,25.74
2018-06-30T11:23:55.039Z,26.81
2018-06-30T11:24:54.933Z,26.51
2018-06-30T11:26:47.650Z,25.84
2018-06-30T11:27:47.538Z,25.45
2018-06-30T11:29:40.240Z,24.18
2018-06-30T11:30:40.142Z,24.77
2018-06-30T11:32:32.856Z,24.28
2018-06-30T11:33:32.738Z,24.96
2018-06-30T11:35:25.432Z,24.10
2018-06-30T11:36:25.340Z,24.08
2018-06-30T11:38:18.057Z,24.57
2018-06-30T11:39:17.944Z,23.99
2018-06-30T11:41:10.671Z,24.28
2018-06-30T11:42:10.544Z,25.64
2018-06-30T11:44:03.244Z,24.57
2018-06-30T11:45:03.145Z,24.08
2018-06-30T11:46:55.862Z,24.18
2018-06-30T11:47:55.748Z,23.89
2018-06-30T11:49:48.447Z,24.87
2018-06-30T11:50:48.354Z,25.35
2018-06-30T11:52:41.061Z,24.38
2018-06-30T11:53:40.943Z,23.99
2018-06-30T11:55:33.638Z,22.63
2018-06-30T11:56:33.549Z,22.24
2018-06-30T11:58:26.261Z,22.72
2018-06-30T11:59:26.148Z,23.50
2018-06-30T12:01:18.843Z,23.79
2018-06-30T12:02:18.744Z,24.49
2018-06-30T12:04:11.464Z,22.44
2018-06-30T12:05:11.346Z,21.08
2018-06-30T12:07:04.044Z,21.56
2018-06-30T12:08:03.951Z,22.05
2018-06-30T12:09:56.665Z,22.34
2018-06-30T12:10:56.550Z,22.34
2018-06-30T12:12:49.275Z,21.66
2018-06-30T12:13:49.151Z,22.34
2018-06-30T12:15:41.853Z,23.20
2018-06-30T12:16:41.758Z,22.63
2018-06-30T12:18:34.484Z,22.53
2018-06-30T12:19:34.370Z,22.74
2018-06-30T12:21:27.062Z,22.34
2018-06-30T12:22:26.970Z,21.56
2018-06-30T12:24:19.690Z,21.75
2018-06-30T12:25:19.567Z,21.66
2018-06-30T12:27:12.265Z,21.85
2018-06-30T12:28:12.172Z,22.16
2018-06-30T12:30:04.880Z,23.13
2018-06-30T12:31:04.773Z,22.16
2018-06-30T12:32:57.462Z,20.89
2018-06-30T12:33:57.365Z,22.06
2018-06-30T12:35:50.089Z,21.67
2018-06-30T12:36:49.971Z,21.08
2018-06-30T12:38:42.670Z,21.77
2018-06-30T12:39:42.573Z,20.70
2018-06-30T12:41:35.289Z,22.06
2018-06-30T12:42:35.171Z,21.47
2018-06-30T12:44:27.894Z,21.47
2018-06-30T12:45:27.775Z,21.75
2018-06-30T12:47:20.472Z,22.64
2018-06-30T12:48:20.374Z,21.09
2018-06-30T12:50:13.096Z,22.65
2018-06-30T12:51:12.979Z,22.75
2018-06-30T12:53:06.165Z,22.55
2018-06-30T12:54:06.134Z,21.29
2018-06-30T12:55:58.781Z,21.00
2018-06-30T12:56:58.669Z,20.40
2018-06-30T12:58:51.365Z,21.57
2018-06-30T12:59:51.270Z,22.35
2018-06-30T13:01:43.990Z,23.13
2018-06-30T13:02:43.868Z,23.61
2018-06-30T13:04:37.057Z,23.71
2018-06-30T13:05:36.965Z,23.42
2018-06-30T13:07:29.676Z,22.83
2018-06-30T13:08:29.557Z,23.42
2018-06-30T13:10:22.273Z,24.10
2018-06-30T13:11:22.178Z,24.29
2018-06-30T13:13:14.889Z,23.52
2018-06-30T13:14:14.793Z,23.80
2018-06-30T13:16:07.648Z,21.86
2018-06-30T13:17:07.391Z,22.83
2018-06-30T13:19:00.095Z,21.57
2018-06-30T13:19:59.995Z,22.25
2018-06-30T13:21:52.719Z,20.99
2018-06-30T13:22:52.604Z,21.37
2018-06-30T13:24:45.294Z,22.07
2018-06-30T13:25:45.197Z,20.90
2018-06-30T13:27:37.909Z,20.31
2018-06-30T13:28:37.812Z,20.21
2018-06-30T13:30:30.497Z,21.47
2018-06-30T13:31:30.410Z,22.44
2018-06-30T13:33:23.125Z,23.13
2018-06-30T13:34:23.068Z,23.61
2018-06-30T13:36:15.720Z,23.32
2018-06-30T13:37:15.601Z,23.52
2018-06-30T13:39:08.302Z,23.43
2018-06-30T13:40:08.202Z,23.62
2018-06-30T13:42:00.918Z,24.10
2018-06-30T13:43:00.809Z,24.19
2018-06-30T13:44:53.541Z,23.91
2018-06-30T13:45:53.448Z,24.11
2018-06-30T13:47:46.161Z,23.93
2018-06-30T13:48:46.048Z,23.44
2018-06-30T13:50:38.743Z,23.73
2018-06-30T13:51:38.650Z,24.12
2018-06-30T13:53:31.366Z,24.50
2018-06-30T13:54:31.247Z,23.72
2018-06-30T13:56:23.948Z,22.85
2018-06-30T13:57:23.847Z,22.45
2018-06-30T13:59:16.562Z,22.55
2018-06-30T14:00:16.450Z,22.93
2018-06-30T14:02:09.145Z,24.10
2018-06-30T14:03:09.053Z,24.50
2018-06-30T14:05:01.761Z,24.60
2018-06-30T14:06:01.643Z,24.40
2018-06-30T14:07:54.344Z,24.50
2018-06-30T14:08:54.250Z,24.60
2018-06-30T14:10:46.965Z,24.89
2018-06-30T14:11:46.847Z,24.89
2018-06-30T14:13:39.567Z,24.01
2018-06-30T14:14:39.448Z,24.50
2018-06-30T14:16:32.154Z,24.69
2018-06-30T14:17:32.050Z,24.21
2018-06-30T14:19:24.769Z,25.27
2018-06-30T14:20:24.647Z,25.08
2018-06-30T14:22:17.345Z,24.21
2018-06-30T14:23:17.258Z,24.40
2018-06-30T14:25:09.967Z,25.18
2018-06-30T14:26:09.856Z,24.51
2018-06-30T14:28:02.547Z,24.40
2018-06-30T14:29:02.451Z,24.22
2018-06-30T14:30:55.171Z,24.11
2018-06-30T14:31:55.061Z,24.30
2018-06-30T14:33:47.755Z,25.18
2018-06-30T14:34:47.651Z,24.89
2018-06-30T14:36:40.361Z,24.41
2018-06-30T14:37:40.547Z,24.61
2018-06-30T14:39:32.977Z,24.02
2018-06-30T14:40:32.856Z,24.51
2018-06-30T14:42:25.547Z,23.63
2018-06-30T14:43:25.471Z,23.44
2018-06-30T14:45:18.162Z,23.83
2018-06-30T14:46:18.044Z,23.93
2018-06-30T14:48:10.737Z,24.51
2018-06-30T14:49:10.643Z,24.99
2018-06-30T14:51:03.362Z,24.41
2018-06-30T14:52:03.243Z,24.12
2018-06-30T14:53:55.938Z,23.93
2018-06-30T14:54:55.850Z,23.35
2018-06-30T14:56:48.550Z,23.83
2018-06-30T14:57:48.434Z,23.54
2018-06-30T14:59:41.131Z,23.73
2018-06-30T15:00:41.031Z,23.63
2018-06-30T15:02:33.750Z,22.85
2018-06-30T15:03:33.640Z,22.26
2018-06-30T15:05:27.997Z,23.62
2018-06-30T15:06:26.237Z,24.21
2018-06-30T15:08:18.955Z,25.08
2018-06-30T15:09:18.838Z,24.40
2018-06-30T15:11:11.533Z,23.62
2018-06-30T15:12:11.434Z,22.75
2018-06-30T15:14:04.148Z,22.94
2018-06-30T15:15:04.039Z,23.14
2018-06-30T15:16:56.768Z,24.01
2018-06-30T15:17:56.643Z,23.54
2018-06-30T15:19:49.344Z,23.05
2018-06-30T15:20:49.250Z,23.35
2018-06-30T15:22:41.971Z,23.35
2018-06-30T15:23:41.858Z,23.14
2018-06-30T15:25:34.551Z,22.85
2018-06-30T15:26:34.454Z,23.52
2018-06-30T15:28:27.176Z,23.14
2018-06-30T15:29:27.063Z,23.63
2018-06-30T15:31:19.763Z,22.65
2018-06-30T15:32:19.664Z,23.52
2018-06-30T15:34:12.393Z,23.14
2018-06-30T15:35:12.274Z,23.52
2018-06-30T15:37:04.977Z,23.91
2018-06-30T15:38:04.873Z,22.65
2018-06-30T15:39:57.590Z,23.52
2018-06-30T15:40:57.480Z,22.75
2018-06-30T15:42:50.194Z,23.91
2018-06-30T15:43:50.079Z,24.30
2018-06-30T15:45:42.770Z,24.01
2018-06-30T15:46:42.677Z,23.52
2018-06-30T15:48:35.393Z,22.45
2018-06-30T15:49:35.281Z,22.45
2018-06-30T15:51:27.985Z,23.14
2018-06-30T15:52:27.881Z,23.14
2018-06-30T15:54:20.594Z,22.76
2018-06-30T15:55:20.479Z,23.52
2018-06-30T15:57:13.173Z,23.82
2018-06-30T15:58:13.077Z,23.82
2018-06-30T16:00:05.791Z,23.82
2018-06-30T16:01:05.675Z,23.82
2018-06-30T16:02:58.373Z,22.74
2018-06-30T16:03:58.283Z,23.42
2018-06-30T16:05:50.997Z,22.93
2018-06-30T16:06:50.878Z,23.32
2018-06-30T16:08:43.572Z,23.22
2018-06-30T16:09:43.538Z,24.29
2018-06-30T16:11:36.212Z,22.83
2018-06-30T16:12:36.098Z,24.19
2018-06-30T16:14:28.820Z,23.71
2018-06-30T16:15:28.698Z,24.39
2018-06-30T16:17:21.396Z,23.42
2018-06-30T16:18:21.294Z,23.22
2018-06-30T16:20:14.016Z,23.32
2018-06-30T16:21:13.896Z,23.32
2018-06-30T16:23:06.648Z,23.32
2018-06-30T16:24:06.497Z,23.52
2018-06-30T16:25:59.207Z,24.19
2018-06-30T16:26:59.094Z,23.42
2018-06-30T16:28:51.898Z,24.00
2018-06-30T16:29:51.688Z,23.80
2018-06-30T16:31:44.402Z,23.71
2018-06-30T16:32:44.290Z,24.28
2018-06-30T16:34:36.983Z,24.28
2018-06-30T16:35:36.882Z,23.89
2018-06-30T16:37:29.599Z,24.08
2018-06-30T16:38:29.480Z,23.60
2018-06-30T16:40:22.179Z,23.31
2018-06-30T16:41:22.087Z,23.41
2018-06-30T16:43:14.795Z,23.89
2018-06-30T16:44:14.684Z,23.89
2018-06-30T16:46:07.406Z,23.99
2018-06-30T16:47:07.278Z,23.97
2018-06-30T16:49:00.001Z,23.88
2018-06-30T16:49:59.880Z,24.07
2018-06-30T16:51:52.594Z,24.17
2018-06-30T16:52:52.473Z,24.07
2018-06-30T16:54:45.170Z,24.07
2018-06-30T16:55:45.075Z,24.38
2018-06-30T16:57:37.783Z,23.89
2018-06-30T16:58:37.669Z,24.07
2018-06-30T17:00:30.412Z,24.56
2018-06-30T17:01:30.260Z,24.66
2018-06-30T17:03:22.970Z,23.88
2018-06-30T17:04:22.854Z,23.69
2018-06-30T17:06:15.611Z,23.79
2018-06-30T17:07:15.454Z,23.19
2018-06-30T17:09:08.170Z,23.30
2018-06-30T17:10:08.054Z,22.72
2018-06-30T17:12:00.745Z,22.42
2018-06-30T17:13:00.675Z,23.09
2018-06-30T17:14:53.370Z,24.16
2018-06-30T17:15:53.246Z,23.58
2018-06-30T17:17:45.967Z,24.26
2018-06-30T17:18:45.841Z,23.79
2018-06-30T17:20:38.530Z,23.88
2018-06-30T17:21:38.432Z,24.07
2018-06-30T17:23:31.148Z,23.68
2018-06-30T17:24:31.027Z,23.58
2018-06-30T17:26:23.764Z,23.68
2018-06-30T17:27:23.625Z,23.48
2018-06-30T17:29:16.333Z,23.28
2018-06-30T17:30:16.216Z,23.48
2018-06-30T17:32:08.907Z,23.57
2018-06-30T17:33:08.805Z,22.61
2018-06-30T17:35:01.519Z,22.60
2018-06-30T17:36:01.403Z,23.48
2018-06-30T17:37:54.091Z,23.57
2018-06-30T17:38:54.000Z,23.95
2018-06-30T17:40:46.709Z,24.24
2018-06-30T17:41:46.590Z,24.63
2018-06-30T17:43:39.316Z,24.92
2018-06-30T17:44:39.188Z,24.44
2018-06-30T17:46:31.883Z,24.63
2018-06-30T17:47:31.779Z,24.83
2018-06-30T17:49:24.492Z,24.83
2018-06-30T17:50:24.378Z,25.12
2018-06-30T17:52:17.064Z,25.21
2018-06-30T17:53:16.971Z,24.92
2018-06-30T17:55:09.681Z,24.54
2018-06-30T17:56:09.558Z,23.94
2018-06-30T17:58:02.253Z,24.43
2018-06-30T17:59:02.160Z,24.91
2018-06-30T18:00:54.874Z,25.68
2018-06-30T18:01:54.755Z,25.88
2018-06-30T18:03:47.510Z,25.20
2018-06-30T18:04:47.358Z,25.40
2018-06-30T18:06:40.076Z,25.19
2018-06-30T18:07:39.958Z,25.38
2018-06-30T18:09:32.680Z,25.09
2018-06-30T18:10:32.554Z,25.29
2018-06-30T18:12:25.393Z,25.19
2018-06-30T18:13:25.148Z,25.48
2018-06-30T18:15:17.914Z,25.38
2018-06-30T18:16:17.778Z,25.19
2018-06-30T18:18:10.539Z,25.67
2018-06-30T18:19:10.438Z,25.48
2018-06-30T18:21:03.155Z,26.34
2018-06-30T18:22:03.036Z,25.95
2018-06-30T18:23:55.728Z,25.66
2018-06-30T18:24:55.636Z,26.15
2018-06-30T18:26:48.339Z,26.63
2018-06-30T18:27:48.226Z,26.63
2018-06-30T18:29:40.909Z,26.05
2018-06-30T18:30:40.818Z,26.63
2018-06-30T18:32:33.547Z,26.92
2018-06-30T18:33:33.414Z,27.11
2018-06-30T18:35:26.107Z,26.92
2018-06-30T18:36:26.009Z,26.73
2018-06-30T18:38:18.723Z,26.23
2018-06-30T18:39:18.622Z,26.72
2018-06-30T18:41:11.444Z,25.84
2018-06-30T18:42:11.199Z,26.99
2018-06-30T18:44:03.910Z,26.90
2018-06-30T18:45:03.783Z,26.79
2018-06-30T18:46:56.480Z,26.79
2018-06-30T18:47:56.380Z,25.93
2018-06-30T18:49:49.092Z,26.51
2018-06-30T18:50:48.972Z,26.31
2018-06-30T18:52:41.700Z,26.31
2018-06-30T18:53:41.565Z,27.28
2018-06-30T18:55:34.257Z,26.99
2018-06-30T18:56:34.163Z,26.12
2018-06-30T18:58:26.947Z,26.41
2018-06-30T18:59:26.754Z,26.21
2018-06-30T19:01:19.444Z,26.79
2018-06-30T19:02:19.367Z,27.66
2018-06-30T19:04:13.055Z,27.75
2018-06-30T19:05:12.932Z,27.46
2018-06-30T19:07:05.627Z,29.01
2018-06-30T19:08:05.529Z,29.01
2018-06-30T19:09:58.267Z,28.89
2018-06-30T19:10:58.123Z,29.67
2018-06-30T19:12:50.812Z,29.86
2018-06-30T19:13:50.715Z,30.73
2018-06-30T19:15:43.431Z,30.91
2018-06-30T19:16:43.312Z,31.30
2018-06-30T19:18:36.011Z,31.30
2018-06-30T19:19:35.908Z,31.20
2018-06-30T19:21:28.673Z,31.88
2018-06-30T19:22:28.499Z,31.98
2018-06-30T19:24:21.214Z,31.78
2018-06-30T19:25:21.088Z,31.96
2018-06-30T19:27:13.783Z,32.15
2018-06-30T19:28:13.689Z,32.06
2018-06-30T19:30:06.408Z,32.64
2018-06-30T19:31:06.302Z,32.44
2018-06-30T19:32:58.980Z,32.92
2018-06-30T19:33:58.878Z,32.81
2018-06-30T19:35:51.586Z,32.81
2018-06-30T19:36:51.473Z,33.10
2018-06-30T19:38:44.157Z,33.29
2018-06-30T19:39:44.063Z,33.20
2018-06-30T19:41:36.770Z,33.87
2018-06-30T19:42:36.654Z,34.26
2018-06-30T19:44:29.339Z,34.24
2018-06-30T19:45:29.241Z,34.24
2018-06-30T19:47:21.947Z,34.44
2018-06-30T19:48:21.825Z,34.53
2018-06-30T19:50:14.517Z,35.02
2018-06-30T19:51:14.418Z,35.02
2018-06-30T19:53:07.214Z,35.69
2018-06-30T19:54:07.009Z,35.30
2018-06-30T19:55:59.721Z,35.38
2018-06-30T19:56:59.593Z,35.38
2018-06-30T19:58:52.287Z,36.44
2018-06-30T19:59:52.185Z,36.44
2018-06-30T20:01:44.898Z,35.77
2018-06-30T20:02:44.774Z,35.96
2018-06-30T20:04:37.468Z,36.15
2018-06-30T20:05:37.435Z,36.25
2018-06-30T20:07:30.079Z,37.02
2018-06-30T20:08:29.957Z,37.31
2018-06-30T20:10:22.652Z,37.12
2018-06-30T20:11:22.548Z,37.29
2018-06-30T20:13:15.260Z,37.58
2018-06-30T20:14:15.144Z,37.19
2018-06-30T20:16:07.823Z,37.58
2018-06-30T20:17:07.721Z,37.58
2018-06-30T20:19:00.659Z,37.68
2018-06-30T20:20:00.310Z,38.16
2018-06-30T20:21:52.997Z,38.26
2018-06-30T20:22:52.898Z,38.54
2018-06-30T20:24:45.603Z,39.41
2018-06-30T20:25:45.483Z,38.74
2018-06-30T20:27:38.190Z,38.53
2018-06-30T20:28:38.065Z,38.72
2018-06-30T20:30:30.752Z,38.91
2018-06-30T20:31:30.654Z,39.01
2018-06-30T20:33:23.358Z,39.39
2018-06-30T20:34:23.241Z,38.81
2018-06-30T20:36:15.928Z,39.47
2018-06-30T20:37:15.822Z,39.56
2018-06-30T20:39:08.528Z,39.37
2018-06-30T20:40:08.413Z,39.66
2018-06-30T20:42:01.097Z,39.66
2018-06-30T20:43:00.999Z,39.86
2018-06-30T20:44:53.701Z,39.37
2018-06-30T20:45:53.580Z,39.37
2018-06-30T20:47:46.379Z,39.37
2018-06-30T20:48:46.169Z,39.18
2018-06-30T20:50:38.863Z,39.86
2018-06-30T20:51:38.766Z,39.47
2018-06-30T20:53:31.466Z,40.91
2018-06-30T20:54:31.346Z,40.05
2018-06-30T20:56:24.081Z,40.53
2018-06-30T20:57:23.935Z,40.05
2018-06-30T20:59:16.634Z,40.24
2018-06-30T21:00:16.520Z,40.80
2018-06-30T21:02:09.202Z,40.80
2018-06-30T21:03:09.100Z,40.31
2018-06-30T21:05:01.803Z,40.70
2018-06-30T21:06:01.684Z,40.89
2018-06-30T21:07:54.371Z,41.56
2018-06-30T21:08:54.269Z,40.61
2018-06-30T21:10:46.974Z,40.70
2018-06-30T21:11:46.854Z,40.80
2018-06-30T21:13:39.558Z,40.70
2018-06-30T21:14:39.431Z,40.61
2018-06-30T21:16:32.121Z,41.08
2018-06-30T21:17:32.027Z,41.28
2018-06-30T21:19:24.723Z,41.38
2018-06-30T21:20:24.603Z,41.08
2018-06-30T21:22:17.313Z,40.99
2018-06-30T21:23:17.198Z,40.80
2018-06-30T21:25:09.900Z,40.97
2018-06-30T21:26:09.789Z,41.55
2018-06-30T21:28:02.463Z,41.55
2018-06-30T21:29:02.388Z,41.26
2018-06-30T21:30:55.064Z,41.74
2018-06-30T21:31:54.946Z,42.22
2018-06-30T21:33:47.631Z,42.22
2018-06-30T21:34:47.531Z,42.99
2018-06-30T21:36:40.255Z,41.35
2018-06-30T21:37:40.121Z,42.12
2018-06-30T21:39:32.824Z,41.43
2018-06-30T21:40:32.692Z,41.24
2018-06-30T21:42:25.372Z,42.00
2018-06-30T21:43:25.274Z,42.10
2018-06-30T21:45:17.972Z,42.10
2018-06-30T21:46:17.857Z,41.91
2018-06-30T21:48:10.533Z,41.24
2018-06-30T21:49:10.436Z,41.33
2018-06-30T21:51:03.136Z,41.24
2018-06-30T21:52:03.017Z,42.10
2018-06-30T21:53:55.698Z,42.10
2018-06-30T21:54:55.599Z,41.72
2018-06-30T21:56:48.301Z,42.20
2018-06-30T21:57:48.187Z,41.72
2018-06-30T21:59:40.871Z,41.72
